Time;durP1;ratioP1;P1;durP2;ratioP2;P2;SDS_P1;SDS_P2;PMS_P1;PMS_P2;Temp;Humidity;BMP_temperature;BMP_pressure;BME280_temperature;BME280_humidity;BME280_pressure;Samples;Min_cycle;Max_cycle;Signal;HPM_P1;HPM_P2
2022/04/20 00:00:48;;;;;;;7.68;3.60;;;6.10;99.90;;;;;;5094506;28;20040;-66
2022/04/20 00:03:15;;;;;;;6.25;3.45;;;6.00;99.90;;;;;;5099288;28;20510;-65
2022/04/20 00:05:43;;;;;;;6.53;2.92;;;5.90;99.90;;;;;;5104316;28;20399;-66
2022/04/20 00:08:10;;;;;;;5.70;3.17;;;5.90;99.90;;;;;;5109240;28;20546;-67
2022/04/20 00:10:38;;;;;;;5.80;3.20;;;5.90;99.90;;;;;;5094436;28;20426;-66
2022/04/20 00:13:05;;;;;;;5.20;3.22;;;5.90;99.90;;;;;;5108066;28;20050;-66
2022/04/20 00:15:33;;;;;;;7.50;3.10;;;5.90;99.90;;;;;;5106565;28;20495;-66
2022/04/20 00:18:00;;;;;;;7.18;3.92;;;5.90;99.90;;;;;;5094492;28;20048;-66
2022/04/20 00:20:27;;;;;;;5.80;3.33;;;5.80;99.90;;;;;;5092743;28;20102;-65
2022/04/20 00:22:55;;;;;;;5.63;3.17;;;5.80;99.90;;;;;;5094643;28;20180;-66
2022/04/20 00:25:22;;;;;;;6.53;3.55;;;5.80;99.90;;;;;;5108055;28;20408;-66
2022/04/20 00:27:50;;;;;;;5.45;3.30;;;5.80;99.90;;;;;;5105463;28;20028;-66
2022/04/20 00:30:17;;;;;;;6.78;3.58;;;5.80;99.90;;;;;;5093369;28;20483;-65
2022/04/20 00:32:45;;;;;;;7.00;3.42;;;5.80;99.90;;;;;;5081722;28;20048;-66
2022/04/20 00:35:13;;;;;;;6.75;3.30;;;5.70;99.90;;;;;;5094430;28;20080;-66
2022/04/20 00:37:43;;;;;;;7.05;3.40;;;5.60;99.90;;;;;;5098159;28;20055;-67
2022/04/20 00:40:11;;;;;;;7.68;3.42;;;5.60;99.90;;;;;;5085875;28;20102;-66
2022/04/20 00:42:40;;;;;;;7.53;3.30;;;5.60;99.90;;;;;;5092220;28;20043;-65
2022/04/20 00:45:09;;;;;;;6.18;3.25;;;5.60;99.90;;;;;;5086616;28;20158;-65
2022/04/20 00:47:38;;;;;;;5.07;3.00;;;5.60;99.90;;;;;;5096337;28;20145;-65
2022/04/20 00:50:07;;;;;;;5.90;3.33;;;5.50;99.90;;;;;;5093785;28;20276;-66
2022/04/20 00:52:34;;;;;;;8.10;3.88;;;5.50;99.90;;;;;;5091544;28;20040;-66
2022/04/20 00:55:22;;;;;;;5.85;3.08;;;5.50;99.90;;;;;;5091458;28;20051;-65
2022/04/20 00:57:49;;;;;;;6.43;3.30;;;5.50;99.90;;;;;;5094050;28;20051;-66
2022/04/20 01:00:17;;;;;;;7.88;4.30;;;5.50;99.90;;;;;;5075684;28;20051;-65
2022/04/20 01:02:47;;;;;;;7.25;4.30;;;5.50;99.90;;;;;;5075105;28;20082;-66
2022/04/20 01:05:15;;;;;;;8.05;3.47;;;5.50;99.90;;;;;;5089611;28;20101;-66
2022/04/20 01:08:02;;;;;;;6.55;3.90;;;5.50;99.90;;;;;;5086468;28;20384;-65
2022/04/20 01:10:49;;;;;;;8.32;4.10;;;5.50;99.90;;;;;;5058774;28;20117;-66
2022/04/20 01:13:29;;;;;;;6.40;3.67;;;5.40;99.90;;;;;;5090266;28;20504;-65
2022/04/20 01:16:18;;;;;;;5.50;3.50;;;5.40;99.90;;;;;;5091415;28;20541;-65
2022/04/20 01:19:08;;;;;;;7.32;3.75;;;5.30;99.90;;;;;;5090479;28;20040;-65
2022/04/20 01:21:38;;;;;;;10.95;4.00;;;5.20;99.90;;;;;;5095123;28;20047;-66
2022/04/20 01:24:32;;;;;;;6.22;3.60;;;5.10;99.90;;;;;;5106470;28;20085;-65
2022/04/20 01:27:29;;;;;;;5.78;3.95;;;5.00;99.90;;;;;;5093042;28;20646;-66
2022/04/20 01:30:15;;;;;;;7.25;3.72;;;5.00;99.90;;;;;;5096477;28;20808;-64
2022/04/20 01:33:11;;;;;;;7.38;3.90;;;4.90;99.90;;;;;;5050104;28;20107;-66
2022/04/20 01:35:42;;;;;;;6.57;4.05;;;4.90;99.90;;;;;;5033289;28;20091;-65
2022/04/20 01:38:09;;;;;;;7.97;3.70;;;4.80;99.90;;;;;;5050173;28;20132;-66
2022/04/20 01:40:37;;;;;;;7.13;3.90;;;4.80;99.90;;;;;;5043639;28;20049;-65
2022/04/20 01:43:05;;;;;;;7.30;3.78;;;4.80;99.90;;;;;;5048050;28;20057;-65
2022/04/20 01:45:33;;;;;;;7.05;4.28;;;4.70;99.90;;;;;;5033010;28;20045;-65
2022/04/20 01:48:21;;;;;;;7.72;3.72;;;4.70;99.90;;;;;;5047942;28;20075;-66
2022/04/20 01:54:05;;;;;;;10.75;4.40;;;4.60;99.90;;;;;;4990659;28;20038;-65
2022/04/20 01:56:43;;;;;;;8.07;4.22;;;4.60;99.90;;;;;;4964177;28;20073;-65
2022/04/20 01:59:29;;;;;;;10.00;4.32;;;4.60;99.90;;;;;;4990544;28;20057;-66
2022/04/20 02:05:13;;;;;;;8.88;4.13;;;4.50;99.90;;;;;;4989393;28;20053;-65
2022/04/20 02:07:44;;;;;;;7.57;3.80;;;4.50;99.90;;;;;;4990068;28;20050;-66
2022/04/20 02:10:14;;;;;;;7.07;3.78;;;4.40;99.90;;;;;;5015784;28;20915;-66
2022/04/20 02:12:42;;;;;;;8.70;4.40;;;4.40;99.90;;;;;;5017354;28;20052;-66
2022/04/20 02:15:23;;;;;;;7.22;4.18;;;4.30;99.90;;;;;;5017402;28;20103;-65
2022/04/20 02:17:56;;;;;;;6.43;3.75;;;4.30;99.90;;;;;;5019383;28;20065;-65
2022/04/20 02:20:34;;;;;;;8.60;4.47;;;4.20;99.90;;;;;;5011664;28;20512;-66
2022/04/20 02:23:03;;;;;;;7.45;3.95;;;4.10;99.90;;;;;;5016447;28;20050;-65
2022/04/20 02:25:31;;;;;;;6.47;3.90;;;4.10;99.90;;;;;;5038716;28;20576;-66
2022/04/20 02:27:59;;;;;;;6.28;4.45;;;4.00;99.90;;;;;;5049163;28;20055;-64
2022/04/20 02:30:26;;;;;;;6.93;4.15;;;4.00;99.90;;;;;;5100609;28;20055;-66
2022/04/20 02:32:55;;;;;;;7.03;4.00;;;4.00;99.90;;;;;;5080950;28;20044;-66
2022/04/20 02:35:22;;;;;;;8.00;4.10;;;4.00;99.90;;;;;;5095192;28;20063;-66
2022/04/20 02:37:50;;;;;;;7.78;4.28;;;3.90;99.90;;;;;;5089157;28;20578;-66
2022/04/20 02:40:17;;;;;;;6.82;4.15;;;3.90;99.90;;;;;;5098565;28;20040;-66
2022/04/20 02:42:45;;;;;;;9.30;4.68;;;3.90;99.90;;;;;;5099830;28;20036;-65
2022/04/20 02:45:12;;;;;;;7.82;3.75;;;3.90;99.90;;;;;;5090701;28;20040;-65
2022/04/20 02:47:40;;;;;;;6.95;3.80;;;3.90;99.90;;;;;;5081875;28;20043;-66
2022/04/20 02:50:07;;;;;;;7.15;4.00;;;3.90;99.90;;;;;;5099190;28;20082;-65
2022/04/20 02:52:35;;;;;;;6.78;4.20;;;3.90;99.90;;;;;;5092170;28;20097;-65
2022/04/20 02:55:03;;;;;;;10.25;4.45;;;3.90;99.90;;;;;;5090476;28;20044;-66
2022/04/20 02:57:30;;;;;;;10.52;4.30;;;3.90;99.90;;;;;;5078500;28;20143;-65
2022/04/20 02:59:58;;;;;;;5.97;3.47;;;3.90;99.90;;;;;;5089177;28;20101;-66
2022/04/20 03:02:26;;;;;;;10.13;4.13;;;3.90;99.90;;;;;;5089751;28;20047;-66
2022/04/20 03:04:54;;;;;;;8.05;4.05;;;3.90;99.90;;;;;;5090366;28;20075;-66
2022/04/20 03:07:22;;;;;;;10.57;5.15;;;3.90;99.90;;;;;;5090883;28;20129;-66
2022/04/20 03:09:53;;;;;;;11.67;4.50;;;3.90;99.90;;;;;;5087592;28;20048;-67
2022/04/20 03:12:22;;;;;;;9.70;4.25;;;3.90;99.90;;;;;;5078777;28;20507;-66
2022/04/20 03:14:54;;;;;;;6.90;3.78;;;3.90;99.90;;;;;;5090687;28;20064;-65
2022/04/20 03:17:22;;;;;;;5.53;3.65;;;3.90;99.90;;;;;;5081441;28;20109;-66
2022/04/20 03:19:51;;;;;;;8.10;3.83;;;3.90;99.90;;;;;;5090549;28;20032;-66
2022/04/20 03:22:19;;;;;;;8.63;4.57;;;3.90;99.90;;;;;;5096716;28;20161;-65
2022/04/20 03:24:46;;;;;;;8.00;3.50;;;3.90;99.90;;;;;;5101380;28;20071;-65
2022/04/20 03:27:43;;;;;;;7.50;4.30;;;3.80;99.90;;;;;;5029238;28;20116;-65
2022/04/20 03:30:12;;;;;;;8.82;3.75;;;3.80;99.90;;;;;;5031705;28;20049;-65
2022/04/20 03:32:41;;;;;;;5.82;3.60;;;3.80;99.90;;;;;;5030863;28;20088;-65
2022/04/20 03:35:08;;;;;;;7.30;4.10;;;3.80;99.90;;;;;;5034283;28;20049;-65
2022/04/20 03:37:37;;;;;;;6.68;3.80;;;3.80;99.90;;;;;;5032668;28;20057;-66
2022/04/20 03:40:05;;;;;;;8.52;4.22;;;3.80;99.90;;;;;;5032689;28;20493;-66
2022/04/20 03:42:33;;;;;;;8.98;4.45;;;3.70;99.90;;;;;;5024176;28;20041;-65
2022/04/20 03:45:01;;;;;;;9.63;4.43;;;3.80;99.90;;;;;;5018501;28;20491;-65
2022/04/20 03:47:28;;;;;;;8.40;4.07;;;3.70;99.90;;;;;;5032020;28;20563;-66
2022/04/20 03:49:57;;;;;;;9.05;3.95;;;3.70;99.90;;;;;;5014940;28;20057;-65
2022/04/20 03:52:24;;;;;;;7.53;4.30;;;3.70;99.90;;;;;;5016173;28;20123;-65
2022/04/20 03:54:51;;;;;;;6.32;3.78;;;3.70;99.90;;;;;;5013716;28;20050;-65
2022/04/20 03:57:19;;;;;;;7.22;4.05;;;3.70;99.90;;;;;;5030709;28;20385;-66
2022/04/20 03:59:47;;;;;;;6.50;4.22;;;3.60;99.90;;;;;;5013913;28;20523;-66
2022/04/20 04:02:17;;;;;;;6.55;4.20;;;3.70;99.90;;;;;;5014287;28;20052;-66
2022/04/20 04:05:17;;;;;;;8.98;5.45;;;3.70;99.90;;;;;;5073535;28;20606;-66
2022/04/20 04:07:52;;;;;;;10.82;5.63;;;3.70;99.90;;;;;;5086087;28;20051;-66
2022/04/20 04:10:26;;;;;;;8.23;4.80;;;3.70;99.90;;;;;;5092971;28;20493;-65
2022/04/20 04:12:56;;;;;;;6.78;3.92;;;3.70;99.90;;;;;;5089328;28;20127;-66
2022/04/20 04:15:25;;;;;;;9.68;4.88;;;3.60;99.90;;;;;;5090399;28;20047;-66
2022/04/20 04:17:58;;;;;;;9.18;4.15;;;3.60;99.90;;;;;;5105416;28;20064;-66
2022/04/20 04:20:31;;;;;;;7.88;4.22;;;3.50;99.90;;;;;;5088877;28;20316;-67
2022/04/20 04:22:58;;;;;;;9.13;4.70;;;3.40;99.90;;;;;;5105475;28;20694;-66
2022/04/20 04:25:39;;;;;;;8.73;4.45;;;3.40;99.90;;;;;;5095556;28;20078;-66
2022/04/20 04:28:08;;;;;;;7.55;4.32;;;3.40;99.90;;;;;;5092100;28;20072;-66
2022/04/20 04:30:40;;;;;;;7.27;3.93;;;3.40;99.90;;;;;;5080050;28;20048;-66
2022/04/20 04:33:08;;;;;;;8.25;4.35;;;3.40;99.90;;;;;;5092718;28;20059;-66
2022/04/20 04:35:35;;;;;;;7.88;4.68;;;3.40;99.90;;;;;;5087535;28;20043;-66
2022/04/20 04:38:07;;;;;;;9.35;4.15;;;3.40;99.90;;;;;;5097753;28;20520;-66
2022/04/20 04:40:35;;;;;;;7.15;4.22;;;3.50;99.90;;;;;;5090479;28;20036;-66
2022/04/20 04:43:04;;;;;;;11.65;5.00;;;3.50;99.90;;;;;;5089499;28;20040;-66
2022/04/20 04:48:41;;;;;;;7.30;4.25;;;3.60;99.90;;;;;;5080229;28;20056;-66
2022/04/20 04:51:13;;;;;;;9.32;4.47;;;3.70;99.90;;;;;;5087630;28;20035;-66
2022/04/20 04:53:44;;;;;;;11.85;4.68;;;3.70;99.90;;;;;;5104591;28;20036;-66
2022/04/20 04:56:25;;;;;;;8.10;4.35;;;3.80;99.90;;;;;;5088305;28;20039;-67
2022/04/20 04:58:53;;;;;;;10.98;5.50;;;3.80;99.90;;;;;;5091631;28;20036;-66
2022/04/20 05:01:21;;;;;;;11.85;6.80;;;3.90;99.90;;;;;;5088122;28;20052;-67
2022/04/20 05:03:49;;;;;;;19.60;6.55;;;3.90;99.90;;;;;;5095474;28;20048;-66
2022/04/20 05:06:18;;;;;;;10.32;4.72;;;4.00;99.90;;;;;;5096393;28;20097;-66
2022/04/20 05:09:02;;;;;;;9.55;5.70;;;4.10;99.90;;;;;;5100488;28;20081;-66
2022/04/20 05:11:30;;;;;;;10.07;4.68;;;4.20;99.90;;;;;;5095461;28;20518;-66
2022/04/20 05:13:58;;;;;;;9.40;5.03;;;4.30;99.90;;;;;;5090135;28;20044;-65
2022/04/20 05:16:27;;;;;;;10.70;5.22;;;4.40;99.90;;;;;;5106287;28;20037;-66
2022/04/20 05:18:54;;;;;;;8.90;5.40;;;4.50;99.90;;;;;;5111542;27;20509;-66
2022/04/20 05:21:23;;;;;;;10.07;5.18;;;4.60;99.90;;;;;;5104316;28;20044;-66
2022/04/20 05:23:50;;;;;;;10.40;5.38;;;4.70;99.90;;;;;;5076602;28;20042;-66
2022/04/20 05:26:18;;;;;;;9.45;5.10;;;4.80;99.90;;;;;;5103405;28;20063;-67
2022/04/20 05:28:46;;;;;;;10.20;4.82;;;4.80;99.90;;;;;;5098624;28;20135;-66
2022/04/20 05:31:15;;;;;;;11.98;5.95;;;4.90;99.90;;;;;;5076314;28;20067;-66
2022/04/20 05:33:44;;;;;;;10.93;5.25;;;4.80;99.90;;;;;;5098189;28;20050;-66
2022/04/20 05:36:14;;;;;;;7.78;4.68;;;4.80;99.90;;;;;;5082265;28;20075;-66
2022/04/20 05:41:39;;;;;;;11.18;5.18;;;4.90;99.90;;;;;;5087948;28;20043;-66
2022/04/20 05:44:10;;;;;;;;;;;5.00;99.90;;;;;;5092386;28;20074;-66
2022/04/20 05:46:39;;;;;;;9.65;4.30;;;5.10;99.90;;;;;;5095784;28;19935;-66
2022/04/20 05:49:10;;;;;;;9.60;5.07;;;5.10;99.90;;;;;;5095594;28;20070;-64
2022/04/20 05:51:39;;;;;;;9.20;4.93;;;5.10;99.90;;;;;;5093938;28;20063;-65
2022/04/20 05:54:07;;;;;;;8.27;4.90;;;5.20;99.90;;;;;;5104007;28;20470;-66
2022/04/20 05:56:37;;;;;;;10.30;4.50;;;5.20;99.90;;;;;;5106356;28;20066;-66
2022/04/20 05:59:05;;;;;;;7.18;4.80;;;5.30;99.90;;;;;;5088898;28;20040;-66
2022/04/20 06:01:35;;;;;;;8.18;5.25;;;5.40;99.90;;;;;;5092874;28;20119;-66
2022/04/20 06:04:11;;;;;;;8.07;4.75;;;5.40;99.90;;;;;;5093028;28;20040;-66
2022/04/20 06:06:48;;;;;;;11.65;4.70;;;5.60;99.90;;;;;;5081204;28;20573;-66
2022/04/20 06:09:20;;;;;;;;;;;5.70;99.90;;;;;;5088547;28;20402;-66
2022/04/20 06:11:48;;;;;;;10.18;4.72;;;5.70;99.90;;;;;;5098053;28;19987;-65
2022/04/20 06:14:21;;;;;;;8.98;4.90;;;5.80;99.90;;;;;;5108246;28;20049;-66
2022/04/20 06:16:54;;;;;;;9.25;5.05;;;5.80;99.90;;;;;;5096836;28;20124;-66
2022/04/20 06:19:47;;;;;;;7.60;3.70;;;5.80;99.90;;;;;;5099354;28;20066;-65
2022/04/20 06:22:38;;;;;;;7.40;4.30;;;5.90;99.90;;;;;;5095282;28;20142;-66
2022/04/20 06:25:34;;;;;;;8.70;5.10;;;6.00;99.90;;;;;;5089547;28;20059;-66
2022/04/20 06:28:25;;;;;;;7.55;4.65;;;6.10;99.90;;;;;;5082791;28;20068;-66
2022/04/20 06:31:04;;;;;;;11.07;4.60;;;6.20;99.90;;;;;;5081314;28;20456;-66
2022/04/20 06:33:41;;;;;;;10.38;5.07;;;6.20;99.90;;;;;;5099328;28;20586;-66
2022/04/20 06:36:21;;;;;;;12.85;4.80;;;6.30;99.90;;;;;;5087712;28;20108;-66
2022/04/20 06:39:21;;;;;;;10.43;4.55;;;6.40;99.90;;;;;;5077841;28;20130;-66
2022/04/20 06:42:04;;;;;;;9.30;4.78;;;6.50;99.90;;;;;;5074742;28;20044;-66
2022/04/20 06:44:57;;;;;;;6.10;4.38;;;6.60;99.90;;;;;;5066753;28;20512;-67
2022/04/20 06:47:41;;;;;;;7.97;4.78;;;6.80;99.90;;;;;;5069193;28;20051;-66
2022/04/20 06:50:26;;;;;;;13.15;4.97;;;6.80;99.90;;;;;;5071586;28;20051;-67
2022/04/20 06:58:48;;;;;;;8.00;4.70;;;7.20;99.90;;;;;;5070373;28;20051;-65
2022/04/20 07:01:45;;;;;;;6.80;4.47;;;7.30;99.90;;;;;;5081710;28;20150;-66
2022/04/20 07:04:27;;;;;;;6.35;4.10;;;7.50;99.90;;;;;;5085372;28;20075;-65
2022/04/20 07:07:09;;;;;;;7.95;4.05;;;7.60;99.90;;;;;;5051476;28;20453;-67
2022/04/20 07:09:56;;;;;;;11.35;4.53;;;7.80;99.90;;;;;;5057532;28;20076;-67
2022/04/20 07:12:36;;;;;;;9.13;4.25;;;7.80;99.90;;;;;;5074816;28;20059;-66
2022/04/20 07:15:04;;;;;;;7.07;4.50;;;7.90;99.90;;;;;;5066542;28;20480;-67
2022/04/20 07:17:32;;;;;;;5.93;3.97;;;8.00;99.90;;;;;;5091191;28;20051;-67
2022/04/20 07:20:31;;;;;;;8.10;4.45;;;8.10;99.90;;;;;;5043662;28;20064;-67
2022/04/20 07:23:10;;;;;;;8.10;4.05;;;8.20;99.90;;;;;;5024596;28;20061;-66
2022/04/20 07:25:47;;;;;;;6.03;3.50;;;8.30;99.90;;;;;;5047603;28;20048;-66
2022/04/20 07:28:26;;;;;;;6.13;4.10;;;8.40;99.90;;;;;;5035585;28;20963;-66
2022/04/20 07:31:05;;;;;;;8.23;4.22;;;8.50;99.90;;;;;;5045081;28;20547;-67
2022/04/20 07:33:51;;;;;;;6.70;4.10;;;8.60;99.90;;;;;;5046350;28;20504;-66
2022/04/20 07:36:45;;;;;;;5.88;3.42;;;8.70;99.90;;;;;;5043642;28;20053;-67
2022/04/20 07:39:47;;;;;;;5.80;3.53;;;8.80;99.90;;;;;;4980042;28;20053;-66
2022/04/20 07:42:44;;;;;;;6.75;3.42;;;9.00;99.90;;;;;;4966671;28;20459;-66
2022/04/20 07:45:26;;;;;;;6.88;3.50;;;9.20;99.90;;;;;;4965997;28;20141;-66
2022/04/20 07:48:09;;;;;;;4.30;2.80;;;9.30;99.90;;;;;;4963101;28;20087;-66
2022/04/20 07:51:02;;;;;;;7.57;3.90;;;9.40;99.90;;;;;;4960265;28;20106;-66
2022/04/20 07:53:32;;;;;;;6.40;3.67;;;9.50;99.90;;;;;;4965940;28;20109;-65
2022/04/20 07:56:28;;;;;;;7.75;3.47;;;9.60;99.90;;;;;;4988421;28;20061;-66
2022/04/20 07:59:20;;;;;;;5.47;2.83;;;9.80;99.90;;;;;;4988431;28;20057;-65
2022/04/20 08:01:56;;;;;;;6.10;2.92;;;9.90;99.90;;;;;;4986461;28;20595;-66
2022/04/20 08:04:44;;;;;;;5.70;3.05;;;10.00;99.90;;;;;;5006039;28;20048;-66
2022/04/20 08:07:19;;;;;;;7.03;3.58;;;10.10;99.90;;;;;;4987652;28;20053;-67
2022/04/20 08:09:48;;;;;;;6.72;3.30;;;10.00;99.90;;;;;;4990478;28;20900;-66
2022/04/20 08:12:15;;;;;;;5.93;3.30;;;10.10;99.90;;;;;;5004231;28;20046;-66
2022/04/20 08:14:43;;;;;;;6.45;3.47;;;10.20;99.90;;;;;;5023509;28;20488;-66
2022/04/20 08:17:25;;;;;;;;;;;10.40;99.90;;;;;;5050498;28;20553;-67
2022/04/20 08:20:27;;;;;;;5.97;3.42;;;10.50;99.90;;;;;;5027230;28;20392;-66
2022/04/20 08:22:57;;;;;;;5.18;3.25;;;10.70;99.90;;;;;;5008042;28;20054;-66
2022/04/20 08:25:24;;;;;;;6.97;3.22;;;10.60;99.90;;;;;;5026049;28;20068;-66
2022/04/20 08:27:51;;;;;;;5.32;3.33;;;10.70;99.90;;;;;;5027412;28;20136;-66
2022/04/20 08:30:18;;;;;;;6.00;3.22;;;10.80;99.90;;;;;;5027377;28;20614;-65
2022/04/20 08:32:46;;;;;;;5.63;3.15;;;11.00;99.90;;;;;;5030325;28;20595;-65
2022/04/20 08:35:13;;;;;;;8.50;3.92;;;11.00;99.90;;;;;;5028762;28;20054;-65
2022/04/20 08:37:42;;;;;;;6.75;3.42;;;11.20;99.90;;;;;;5030246;28;20539;-66
2022/04/20 08:40:10;;;;;;;6.93;3.17;;;11.20;99.90;;;;;;5028913;28;20045;-66
2022/04/20 08:42:39;;;;;;;4.70;2.92;;;11.40;99.90;;;;;;5028283;28;20037;-67
2022/04/20 08:45:08;;;;;;;4.60;2.80;;;11.50;99.90;;;;;;5021188;28;20049;-66
2022/04/20 08:47:39;;;;;;;6.00;3.25;;;11.60;99.90;;;;;;5028749;28;20045;-66
2022/04/20 08:50:09;;;;;;;4.93;2.97;;;11.60;99.90;;;;;;5021432;28;20475;-67
2022/04/20 08:52:37;;;;;;;8.43;3.63;;;11.70;99.90;;;;;;5010276;28;20469;-67
2022/04/20 08:55:13;;;;;;;5.40;3.08;;;11.80;99.70;;;;;;5078468;28;20048;-64
2022/04/20 08:57:43;;;;;;;4.82;2.95;;;11.80;98.70;;;;;;5107885;28;20054;-66
2022/04/20 09:00:14;;;;;;;5.40;2.90;;;11.80;97.90;;;;;;5090644;28;20044;-65
2022/04/20 09:02:41;;;;;;;6.10;2.90;;;12.00;96.60;;;;;;5087617;28;20499;-66
2022/04/20 09:05:09;;;;;;;4.38;2.78;;;12.00;96.10;;;;;;5077465;28;20578;-65
2022/04/20 09:07:44;;;;;;;6.78;2.80;;;12.20;96.00;;;;;;5090803;28;20036;-67
2022/04/20 09:10:11;;;;;;;4.72;2.92;;;12.30;94.80;;;;;;5089360;28;20467;-65
2022/04/20 09:12:43;;;;;;;4.63;2.60;;;12.40;94.00;;;;;;5088086;28;20040;-66
2022/04/20 09:15:15;;;;;;;5.35;2.83;;;12.50;93.00;;;;;;5091278;28;20040;-66
2022/04/20 09:17:45;;;;;;;6.72;3.05;;;12.60;93.20;;;;;;5092170;28;20435;-66
2022/04/20 09:20:17;;;;;;;4.68;2.90;;;12.60;93.40;;;;;;5104225;28;20432;-65
2022/04/20 09:22:59;;;;;;;;;;;12.60;92.40;;;;;;5089147;28;20071;-66
2022/04/20 09:25:31;;;;;;;5.05;3.13;;;12.60;91.30;;;;;;5087910;28;19919;-66
2022/04/20 09:28:00;;;;;;;5.65;3.33;;;12.70;90.90;;;;;;5083948;28;20058;-66
2022/04/20 09:30:38;;;;;;;4.93;3.00;;;12.90;90.70;;;;;;5089002;28;20387;-66
2022/04/20 09:33:07;;;;;;;4.78;2.90;;;13.10;89.10;;;;;;5088020;28;20051;-65
2022/04/20 09:35:42;;;;;;;6.05;2.70;;;13.30;88.60;;;;;;5094314;28;20486;-65
2022/04/20 09:38:10;;;;;;;5.00;2.60;;;13.30;86.30;;;;;;5088935;28;20495;-66
2022/04/20 09:40:52;;;;;;;6.68;2.83;;;13.50;85.90;;;;;;5087806;28;20047;-66
2022/04/20 09:43:21;;;;;;;7.45;3.00;;;13.60;85.40;;;;;;5092845;28;20043;-66
2022/04/20 09:48:50;;;;;;;5.18;2.67;;;13.50;84.80;;;;;;5094706;28;20415;-66
2022/04/20 09:49:10;;;;;;;4.13;2.65;;;13.70;83.40;;;;;;5094932;28;20322;-66
2022/04/20 09:51:40;;;;;;;4.78;2.83;;;13.80;82.70;;;;;;5081127;28;20589;-66
2022/04/20 09:54:27;;;;;;;4.45;2.53;;;13.80;82.90;;;;;;5089075;28;20131;-65
2022/04/20 09:57:12;;;;;;;4.35;2.60;;;13.90;79.30;;;;;;5091985;28;20044;-66
2022/04/20 09:59:59;;;;;;;4.35;2.50;;;13.80;74.60;;;;;;5086929;28;20430;-66
2022/04/20 10:02:54;;;;;;;5.20;2.50;;;13.90;75.40;;;;;;5090185;28;20036;-66
2022/04/20 10:05:23;;;;;;;4.30;2.40;;;14.10;75.70;;;;;;5088560;28;20078;-66
2022/04/20 10:07:54;;;;;;;3.88;2.40;;;14.30;76.70;;;;;;5089122;28;20278;-66
2022/04/20 10:10:23;;;;;;;3.58;2.25;;;14.30;73.50;;;;;;5087887;28;20050;-66
2022/04/20 10:12:54;;;;;;;4.35;2.40;;;14.40;73.10;;;;;;5083869;28;20096;-66
2022/04/20 10:18:21;;;;;;;4.78;2.78;;;14.80;74.80;;;;;;5074381;28;19924;-67
2022/04/20 10:20:50;;;;;;;5.43;3.58;;;15.20;74.30;;;;;;5094038;28;20040;-66
2022/04/20 10:23:20;;;;;;;6.65;3.67;;;15.10;74.60;;;;;;5093795;28;20387;-66
2022/04/20 10:25:50;;;;;;;5.43;2.88;;;15.20;74.30;;;;;;5097885;28;20517;-66
2022/04/20 10:28:36;;;;;;;6.20;2.92;;;15.40;73.60;;;;;;5088214;28;20218;-65
2022/04/20 10:31:21;;;;;;;3.88;2.35;;;15.50;72.90;;;;;;5088353;28;20568;-65
2022/04/20 10:33:56;;;;;;;5.40;3.08;;;15.70;73.00;;;;;;5080991;28;20406;-66
2022/04/20 10:36:34;;;;;;;6.82;2.75;;;15.40;74.70;;;;;;5091219;28;20046;-66
2022/04/20 10:39:23;;;;;;;8.63;3.17;;;15.20;77.30;;;;;;5096838;28;20130;-65
2022/04/20 10:42:12;;;;;;;6.63;2.78;;;15.70;76.20;;;;;;5094893;28;20324;-66
2022/04/20 10:44:49;;;;;;;4.63;2.58;;;16.00;75.50;;;;;;5089051;28;20067;-67
2022/04/20 10:47:44;;;;;;;5.63;2.72;;;16.30;72.40;;;;;;5090810;28;20040;-66
2022/04/20 10:50:14;;;;;;;7.53;2.90;;;16.50;72.40;;;;;;5090107;28;20039;-66
2022/04/20 10:52:52;;;;;;;7.72;3.10;;;16.70;72.50;;;;;;5103414;28;20456;-66
2022/04/20 10:55:36;;;;;;;5.07;2.80;;;16.80;72.10;;;;;;5088666;28;20039;-66
2022/04/20 10:58:15;;;;;;;5.85;2.80;;;16.70;71.60;;;;;;5089403;28;20068;-66
2022/04/20 11:00:43;;;;;;;4.82;3.10;;;16.80;71.20;;;;;;5089067;28;20052;-66
2022/04/20 11:03:12;;;;;;;5.03;2.83;;;17.30;71.00;;;;;;5089189;28;20059;-66
2022/04/20 11:05:49;;;;;;;4.93;2.92;;;17.50;70.60;;;;;;5084385;28;20526;-66
2022/04/20 11:08:17;;;;;;;4.63;3.00;;;17.80;69.10;;;;;;5088881;28;20165;-66
2022/04/20 11:18:38;;;;;;;4.57;3.03;;;18.00;68.90;;;;;;5082780;28;20044;-67
2022/04/20 11:20:07;;;;;;;5.70;3.10;;;17.90;66.00;;;;;;5092175;28;20035;-66
2022/04/20 11:22:45;;;;;;;5.57;2.92;;;17.90;68.00;;;;;;5082868;28;20044;-65
2022/04/20 11:25:12;;;;;;;4.70;2.92;;;17.70;65.50;;;;;;5077217;28;20131;-66
2022/04/20 11:27:40;;;;;;;5.13;2.78;;;18.00;67.30;;;;;;5080364;28;20117;-64
2022/04/20 11:30:07;;;;;;;6.63;3.42;;;18.00;67.00;;;;;;5070579;28;20056;-66
2022/04/20 11:32:36;;;;;;;4.85;2.67;;;18.30;66.80;;;;;;5086188;28;20139;-65
2022/04/20 11:35:11;;;;;;;4.65;2.97;;;18.60;66.50;;;;;;5070303;28;20048;-66
2022/04/20 11:37:39;;;;;;;6.03;2.95;;;19.20;65.30;;;;;;5086854;28;20069;-66
2022/04/20 11:40:13;;;;;;;6.47;2.72;;;19.50;64.50;;;;;;5092973;28;20799;-66
2022/04/20 11:43:06;;;;;;;5.25;2.85;;;20.00;63.40;;;;;;5085628;28;20043;-67
2022/04/20 11:45:54;;;;;;;6.05;3.40;;;20.30;63.50;;;;;;5088228;28;20036;-66
2022/04/20 11:48:21;;;;;;;8.43;2.78;;;20.20;63.30;;;;;;5090403;28;20127;-66
2022/04/20 11:51:00;;;;;;;6.20;3.00;;;20.30;62.80;;;;;;5094682;28;20040;-66
2022/04/20 11:53:39;;;;;;;6.28;3.38;;;20.70;61.80;;;;;;5091867;28;20491;-66
2022/04/20 11:56:17;;;;;;;9.90;3.70;;;21.10;60.40;;;;;;5090257;28;20032;-66
2022/04/20 11:58:53;;;;;;;10.32;3.17;;;21.40;59.60;;;;;;5089573;28;20036;-66
2022/04/20 12:01:22;;;;;;;9.02;3.47;;;21.20;59.00;;;;;;5090183;28;20063;-66
2022/04/20 12:03:51;;;;;;;5.75;2.53;;;21.00;59.50;;;;;;5094504;28;20485;-66
2022/04/20 12:06:24;;;;;;;6.55;3.30;;;21.50;58.90;;;;;;5093534;28;20060;-66
2022/04/20 12:08:54;;;;;;;7.68;2.90;;;21.80;58.10;;;;;;5089681;28;20069;-66
2022/04/20 12:11:22;;;;;;;6.28;3.15;;;21.80;58.00;;;;;;5093916;28;20506;-66
2022/04/20 12:13:58;;;;;;;6.07;3.20;;;22.00;57.70;;;;;;5089622;28;20152;-66
2022/04/20 12:16:25;;;;;;;8.32;3.20;;;22.10;56.80;;;;;;5091300;28;20056;-66
2022/04/20 12:18:53;;;;;;;6.95;3.45;;;22.30;56.40;;;;;;5091241;28;20512;-66
2022/04/20 12:21:35;;;;;;;8.38;3.35;;;22.60;56.20;;;;;;5087486;28;20048;-66
2022/04/20 12:24:03;;;;;;;6.57;2.88;;;23.00;55.40;;;;;;5089173;28;20116;-66
2022/04/20 12:26:30;;;;;;;6.10;3.40;;;23.30;54.80;;;;;;5081792;28;20144;-66
2022/04/20 12:28:59;;;;;;;5.45;2.90;;;23.90;54.50;;;;;;5091739;28;20038;-66
2022/04/20 12:31:27;;;;;;;8.20;2.70;;;24.20;52.40;;;;;;5090668;28;20526;-66
2022/04/20 12:34:02;;;;;;;4.93;2.78;;;24.20;51.50;;;;;;5095316;28;20093;-66
2022/04/20 12:36:32;;;;;;;4.70;2.80;;;24.30;52.00;;;;;;5087661;28;20407;-66
2022/04/20 12:39:02;;;;;;;5.20;3.25;;;24.60;51.70;;;;;;5105744;28;20447;-66
2022/04/20 12:41:46;;;;;;;5.80;3.08;;;24.70;51.00;;;;;;5106179;28;20112;-66
2022/04/20 12:44:34;;;;;;;4.72;2.83;;;24.80;51.20;;;;;;5108532;28;20039;-65
2022/04/20 12:47:11;;;;;;;6.13;3.08;;;24.80;50.90;;;;;;5098493;28;20486;-66
2022/04/20 12:49:39;;;;;;;8.82;2.95;;;25.00;50.50;;;;;;5103881;28;20446;-66
2022/04/20 12:52:08;;;;;;;4.60;2.78;;;25.10;49.00;;;;;;5103354;28;20040;-67
2022/04/20 12:54:36;;;;;;;5.97;2.80;;;25.20;48.40;;;;;;5089837;28;20585;-66
2022/04/20 13:03:02;;;;;;;4.40;2.92;;;25.70;48.10;;;;;;5084892;28;20040;-66
2022/04/20 13:05:30;;;;;;;;;;;26.10;48.00;;;;;;5082894;28;20112;-65
2022/04/20 13:07:58;;;;;;;6.22;2.90;;;26.30;47.10;;;;;;5080781;28;19924;-65
2022/04/20 13:10:26;;;;;;;7.28;3.03;;;26.30;46.10;;;;;;5088198;28;20113;-66
2022/04/20 13:12:54;;;;;;;4.38;2.80;;;26.30;46.40;;;;;;5089150;28;20119;-66
2022/04/20 13:15:29;;;;;;;4.18;2.55;;;26.60;45.90;;;;;;5091081;28;20051;-66
2022/04/20 13:17:57;;;;;;;4.20;2.70;;;27.10;44.60;;;;;;5091081;28;20040;-66
2022/04/20 13:20:27;;;;;;;4.53;2.58;;;27.50;44.50;;;;;;5096185;28;20466;-66
2022/04/20 13:22:55;;;;;;;5.60;2.53;;;28.10;44.10;;;;;;5080654;28;20070;-65
2022/04/20 13:28:09;;;;;;;5.85;3.40;;;28.50;42.90;;;;;;5093185;28;20036;-66
2022/04/20 13:30:39;;;;;;;4.82;2.50;;;29.50;42.10;;;;;;5090195;28;20033;-67
2022/04/20 13:33:12;;;;;;;6.10;2.30;;;30.50;41.00;;;;;;5089052;28;20062;-67
2022/04/20 13:35:41;;;;;;;5.95;2.70;;;32.00;39.70;;;;;;5092522;28;20047;-66
2022/04/20 13:38:11;;;;;;;4.28;2.38;;;32.40;37.40;;;;;;5083253;28;20374;-66
2022/04/20 13:40:42;;;;;;;6.20;3.50;;;32.90;36.90;;;;;;5095286;28;20062;-66
2022/04/20 13:43:10;;;;;;;7.68;3.92;;;33.30;36.30;;;;;;5091639;28;20051;-65
2022/04/20 13:45:37;;;;;;;4.95;2.80;;;33.60;36.50;;;;;;5086509;28;20084;-67
2022/04/20 13:48:05;;;;;;;3.58;2.22;;;34.60;35.90;;;;;;5081566;28;20079;-66
2022/04/20 13:50:33;;;;;;;4.65;2.70;;;35.50;34.70;;;;;;5092277;28;20055;-66
2022/04/20 13:53:01;;;;;;;4.03;2.58;;;35.00;34.50;;;;;;5090564;28;20052;-67
2022/04/20 13:55:28;;;;;;;4.63;2.20;;;35.30;34.40;;;;;;5091532;28;20040;-66
2022/04/20 13:57:55;;;;;;;6.05;2.38;;;35.40;34.50;;;;;;5091428;28;20600;-65
2022/04/20 14:00:27;;;;;;;3.88;2.60;;;35.00;33.80;;;;;;5086732;28;20100;-65
2022/04/20 14:02:54;;;;;;;4.32;3.03;;;34.00;33.50;;;;;;5081942;28;20047;-66